Rio Branco の空港の天気 - METARとTAF

リオブランコ国際空港 ( SBRB / RBR ) - ブラジル アクレ州、Rio Branco
飛行場実況気象(Metar)
観測時間03/09 01:00 ACT (03/09 06:00 UTC)
風向・風速北北西 1m/s
視程10km以上
天気現象
少しの雲 雲底高度 460m
全天の8割程度の雲 雲底高度 3050m
気温24℃
湿度100%
気圧1011hPa
METARSBRB 090600Z 34002KT 9999 FEW015 BKN100 24/24 Q1011
過去の天気等 Google飛行場航空写真 Wunderground天気予報

過去48時間のMETAR

飛行場予報(TAF)
発表時間: 3/08 23:00 ACT (3/09 04:00 UTC)
予報対象時間: 9日1時 ACT ~ 9日13時 ACT
風向・風速北北西 3m/s
視程8000m
全天の4割程度の雲 雲底高度 300m
9日3時 ACT ~ 9日5時 ACT に徐々に
全天の8割程度の雲 雲底高度 150m
9日6時 ACT ~ 9日9時 ACT に徐々に
風向・風速西北西 3m/s
全天の8割程度の雲 雲底高度 460m
9日10時 ACT ~ 9日12時 ACT に徐々に
全天の8割程度の雲 雲底高度 760m
少しの塔状積雲 雲底高度 910m
TAF SBRB 090400Z 0906/0918 33005KT 8000 SCT010 TN23/0909Z TX30/0918Z
BECMG 0908/0910 BKN005
BECMG 0911/0914 30005KT BKN015
BECMG 0915/0917 BKN025 FEW030TCU RMK PHC